Messwerte McAlester

Temperatur

Temperatur
°C
1593741600 21.00 21.00 27
1593745200 22.00 22.00 26
1593748800 23.00 23.00 25
1593752400 0.00 0.00 23
1593756000 1.00 1.00 23
1593759600 2.00 2.00 23
1593763200 3.00 3.00 22
1593766800 4.00 4.00 22
1593770400 5.00 5.00 22
1593774000 6.00 6.00 22
1593777600 7.00 7.00 22
1593781200 8.00 8.00 24
1593784800 9.00 9.00 27
1593788400 10.00 10.00 28
1593792000 11.00 11.00 29
1593795600 12.00 12.00 31
1593799200 13.00 13.00 33
1593802800 14.00 14.00 34
1593806400 15.00 15.00 35
1593810000 16.00 16.00 36
1593813600 17.00 17.00
1593817200 18.00 18.00 29
1593820800 19.00 19.00 30
1593824400 20.00 20.00 31

Aktuellste Messwerte

Wettercharakter
Wetter: klar
Temperatur
27 °C
Feuchtigkeit
80 %
Wind
0 km/h, -
Luftdruck
1014 hPa
Messzeit: 3. Juli 2020, 21.00Datenquelle: METAR

Weitere Messstationen in der Nähe

Messstation Temperatur Entfernung
Atoka 30 °C 63 km
Ada 27 °C 82 km
Okmulgee 25 °C 89 km
Seminole 26 °C 93 km
Muskogee 28 °C 95 km
Poteau 28 °C 107 km
Sallisaw 28 °C 109 km

Wind

Windrichtung Böen Mittelwind
° km/h km/h
1593741600 21.00 20.00 - 21.00 70° 5
1593745200 22.00 21.00 - 22.00 90° 35 20
1593748800 23.00 22.00 - 23.00 90° 5
1593752400 0.00 23.00 - 0.00
1593756000 1.00 0.00 - 1.00 20° 5
1593759600 2.00 1.00 - 2.00 0
1593763200 3.00 2.00 - 3.00 0
1593766800 4.00 3.00 - 4.00 30° 5
1593770400 5.00 4.00 - 5.00 0
1593774000 6.00 5.00 - 6.00 0
1593777600 7.00 6.00 - 7.00 50° 5
1593781200 8.00 7.00 - 8.00 20° 5
1593784800 9.00 8.00 - 9.00 30° 10
1593788400 10.00 9.00 - 10.00 0
1593792000 11.00 10.00 - 11.00 5
1593795600 12.00 11.00 - 12.00 0
1593799200 13.00 12.00 - 13.00 100° 5
1593802800 14.00 13.00 - 14.00 10
1593806400 15.00 14.00 - 15.00 5
1593810000 16.00 15.00 - 16.00 10
1593813600 17.00 16.00 - 17.00
1593817200 18.00 17.00 - 18.00 360° 55 15
1593820800 19.00 18.00 - 19.00 0
1593824400 20.00 19.00 - 20.00 0

Ihre Wetterstation

Fehlt Ihre Wetterstation auf unserem Portal?

Schreiben Sie an network@meteonews.ch

Klima

Wann ist es am wärmsten? Wann regnet es am wenigsten? Unsere Klimadaten geben Auskunft.